sensor_id;sensor_type;location;lat;lon;timestamp;temperature;humidity
56298;DHT22;42208;6.376;-10.782;2023-06-24T00:00:19;24.60;99.90
56298;DHT22;42208;6.376;-10.782;2023-06-24T00:02:48;24.60;99.90
56298;DHT22;42208;6.376;-10.782;2023-06-24T00:05:16;24.60;99.90
56298;DHT22;42208;6.376;-10.782;2023-06-24T00:07:44;24.60;99.90
56298;DHT22;42208;6.376;-10.782;2023-06-24T00:10:14;24.60;99.90
56298;DHT22;42208;6.376;-10.782;2023-06-24T00:12:45;24.60;99.90
56298;DHT22;42208;6.376;-10.782;2023-06-24T00:15:13;24.60;99.90
56298;DHT22;42208;6.376;-10.782;2023-06-24T00:17:44;24.60;99.90
56298;DHT22;42208;6.376;-10.782;2023-06-24T00:20:15;24.60;99.90
56298;DHT22;42208;6.376;-10.782;2023-06-24T00:22:44;24.60;99.90
56298;DHT22;42208;6.376;-10.782;2023-06-24T00:25:12;24.50;99.90
56298;DHT22;42208;6.376;-10.782;2023-06-24T00:27:41;24.50;99.90
56298;DHT22;42208;6.376;-10.782;2023-06-24T00:30:10;24.50;99.90
56298;DHT22;42208;6.376;-10.782;2023-06-24T00:32:39;24.40;99.90
56298;DHT22;42208;6.376;-10.782;2023-06-24T00:35:09;24.40;99.90
56298;DHT22;42208;6.376;-10.782;2023-06-24T00:37:38;24.40;99.90
56298;DHT22;42208;6.376;-10.782;2023-06-24T00:40:07;24.40;99.90
56298;DHT22;42208;6.376;-10.782;2023-06-24T00:42:35;24.40;99.90
56298;DHT22;42208;6.376;-10.782;2023-06-24T00:45:04;24.40;99.90
56298;DHT22;42208;6.376;-10.782;2023-06-24T00:47:33;24.50;99.90
56298;DHT22;42208;6.376;-10.782;2023-06-24T00:50:03;24.40;99.90
56298;DHT22;42208;6.376;-10.782;2023-06-24T00:52:31;24.40;99.90
56298;DHT22;42208;6.376;-10.782;2023-06-24T00:55:00;24.40;99.90
56298;DHT22;42208;6.376;-10.782;2023-06-24T00:57:29;24.40;99.90
56298;DHT22;42208;6.376;-10.782;2023-06-24T00:59:57;24.30;99.90
56298;DHT22;42208;6.376;-10.782;2023-06-24T01:02:26;24.30;99.90
56298;DHT22;42208;6.376;-10.782;2023-06-24T01:04:55;24.40;99.90
56298;DHT22;42208;6.376;-10.782;2023-06-24T01:09:41;24.30;99.90
56298;DHT22;42208;6.376;-10.782;2023-06-24T01:12:09;24.20;99.90
56298;DHT22;42208;6.376;-10.782;2023-06-24T01:14:38;24.10;99.90
56298;DHT22;42208;6.376;-10.782;2023-06-24T01:20:04;24.10;99.90
56298;DHT22;42208;6.376;-10.782;2023-06-24T01:23:03;24.10;99.90
56298;DHT22;42208;6.376;-10.782;2023-06-24T01:28:44;24.00;99.90
56298;DHT22;42208;6.376;-10.782;2023-06-24T01:34:04;24.00;99.90
56298;DHT22;42208;6.376;-10.782;2023-06-24T01:36:37;24.00;99.90
56298;DHT22;42208;6.376;-10.782;2023-06-24T01:39:09;24.00;99.90
56298;DHT22;42208;6.376;-10.782;2023-06-24T01:41:43;24.00;99.90
56298;DHT22;42208;6.376;-10.782;2023-06-24T01:44:15;24.00;99.90
56298;DHT22;42208;6.376;-10.782;2023-06-24T01:46:46;24.00;99.90
56298;DHT22;42208;6.376;-10.782;2023-06-24T01:49:16;24.00;99.90
56298;DHT22;42208;6.376;-10.782;2023-06-24T01:51:47;24.00;99.90
56298;DHT22;42208;6.376;-10.782;2023-06-24T01:54:17;24.00;99.90
56298;DHT22;42208;6.376;-10.782;2023-06-24T01:56:47;24.00;99.90
56298;DHT22;42208;6.376;-10.782;2023-06-24T01:59:17;24.00;99.90
56298;DHT22;42208;6.376;-10.782;2023-06-24T02:01:47;24.00;99.90
56298;DHT22;42208;6.376;-10.782;2023-06-24T02:04:17;24.00;99.90
56298;DHT22;42208;6.376;-10.782;2023-06-24T02:06:48;24.00;99.90
56298;DHT22;42208;6.376;-10.782;2023-06-24T02:09:19;23.90;99.90
56298;DHT22;42208;6.376;-10.782;2023-06-24T02:11:49;23.90;99.90
56298;DHT22;42208;6.376;-10.782;2023-06-24T02:14:17;24.00;99.90
56298;DHT22;42208;6.376;-10.782;2023-06-24T02:16:48;24.00;99.90
56298;DHT22;42208;6.376;-10.782;2023-06-24T02:19:18;23.90;99.90
56298;DHT22;42208;6.376;-10.782;2023-06-24T02:21:47;23.90;99.90
56298;DHT22;42208;6.376;-10.782;2023-06-24T02:24:16;23.90;99.90
56298;DHT22;42208;6.376;-10.782;2023-06-24T02:26:45;23.90;99.90
56298;DHT22;42208;6.376;-10.782;2023-06-24T02:29:15;23.90;99.90
56298;DHT22;42208;6.376;-10.782;2023-06-24T02:31:45;23.90;99.90
56298;DHT22;42208;6.376;-10.782;2023-06-24T02:34:13;23.90;99.90
56298;DHT22;42208;6.376;-10.782;2023-06-24T02:36:42;23.90;99.90
56298;DHT22;42208;6.376;-10.782;2023-06-24T02:39:11;23.80;99.90
56298;DHT22;42208;6.376;-10.782;2023-06-24T02:41:39;23.80;99.90
56298;DHT22;42208;6.376;-10.782;2023-06-24T02:44:08;23.80;99.90
56298;DHT22;42208;6.376;-10.782;2023-06-24T02:46:37;23.80;99.90
56298;DHT22;42208;6.376;-10.782;2023-06-24T02:49:13;23.80;99.90
56298;DHT22;42208;6.376;-10.782;2023-06-24T02:51:44;23.80;99.90
56298;DHT22;42208;6.376;-10.782;2023-06-24T02:54:14;23.80;99.90
56298;DHT22;42208;6.376;-10.782;2023-06-24T02:57:01;23.90;99.90
56298;DHT22;42208;6.376;-10.782;2023-06-24T02:59:49;23.80;99.90
56298;DHT22;42208;6.376;-10.782;2023-06-24T03:02:19;23.90;99.90
56298;DHT22;42208;6.376;-10.782;2023-06-24T03:04:50;23.80;99.90
56298;DHT22;42208;6.376;-10.782;2023-06-24T03:07:19;23.80;99.90
56298;DHT22;42208;6.376;-10.782;2023-06-24T03:09:48;23.90;99.90
56298;DHT22;42208;6.376;-10.782;2023-06-24T03:12:16;23.80;99.90
56298;DHT22;42208;6.376;-10.782;2023-06-24T03:14:45;23.80;99.90
56298;DHT22;42208;6.376;-10.782;2023-06-24T03:17:14;23.80;99.90
56298;DHT22;42208;6.376;-10.782;2023-06-24T03:19:44;23.80;99.90
56298;DHT22;42208;6.376;-10.782;2023-06-24T03:22:12;23.70;99.90
56298;DHT22;42208;6.376;-10.782;2023-06-24T03:24:43;23.70;99.90
56298;DHT22;42208;6.376;-10.782;2023-06-24T03:27:12;23.70;99.90
56298;DHT22;42208;6.376;-10.782;2023-06-24T03:29:43;23.70;99.90
56298;DHT22;42208;6.376;-10.782;2023-06-24T03:32:13;23.70;99.90
56298;DHT22;42208;6.376;-10.782;2023-06-24T03:34:42;23.70;99.90
56298;DHT22;42208;6.376;-10.782;2023-06-24T03:37:11;23.70;99.90
56298;DHT22;42208;6.376;-10.782;2023-06-24T03:39:41;23.70;99.90
56298;DHT22;42208;6.376;-10.782;2023-06-24T03:42:10;23.60;99.90
56298;DHT22;42208;6.376;-10.782;2023-06-24T03:44:38;23.60;99.90
56298;DHT22;42208;6.376;-10.782;2023-06-24T03:47:07;23.60;99.90
56298;DHT22;42208;6.376;-10.782;2023-06-24T03:49:35;23.60;99.90
56298;DHT22;42208;6.376;-10.782;2023-06-24T03:52:05;23.60;99.90
56298;DHT22;42208;6.376;-10.782;2023-06-24T03:54:35;23.60;99.90
56298;DHT22;42208;6.376;-10.782;2023-06-24T03:57:03;23.60;99.90
56298;DHT22;42208;6.376;-10.782;2023-06-24T03:59:32;23.60;99.90
56298;DHT22;42208;6.376;-10.782;2023-06-24T04:02:00;23.60;99.90
56298;DHT22;42208;6.376;-10.782;2023-06-24T04:04:29;23.60;99.90
56298;DHT22;42208;6.376;-10.782;2023-06-24T04:06:57;23.60;99.90
56298;DHT22;42208;6.376;-10.782;2023-06-24T04:09:26;23.60;99.90
56298;DHT22;42208;6.376;-10.782;2023-06-24T04:11:55;23.70;99.90
56298;DHT22;42208;6.376;-10.782;2023-06-24T04:14:23;23.70;99.90
56298;DHT22;42208;6.376;-10.782;2023-06-24T04:16:52;23.70;99.90
56298;DHT22;42208;6.376;-10.782;2023-06-24T04:19:20;23.70;99.90
56298;DHT22;42208;6.376;-10.782;2023-06-24T04:21:49;23.70;99.90
56298;DHT22;42208;6.376;-10.782;2023-06-24T04:24:17;23.70;99.90
56298;DHT22;42208;6.376;-10.782;2023-06-24T04:26:46;23.70;99.90
56298;DHT22;42208;6.376;-10.782;2023-06-24T04:29:14;23.70;99.90
56298;DHT22;42208;6.376;-10.782;2023-06-24T04:31:43;23.70;99.90
56298;DHT22;42208;6.376;-10.782;2023-06-24T04:34:12;23.70;99.90
56298;DHT22;42208;6.376;-10.782;2023-06-24T04:36:40;23.70;99.90
56298;DHT22;42208;6.376;-10.782;2023-06-24T04:39:09;23.70;99.90
56298;DHT22;42208;6.376;-10.782;2023-06-24T04:41:37;23.70;99.90
56298;DHT22;42208;6.376;-10.782;2023-06-24T04:44:06;23.70;99.90
56298;DHT22;42208;6.376;-10.782;2023-06-24T04:46:34;23.70;99.90
56298;DHT22;42208;6.376;-10.782;2023-06-24T04:49:02;23.70;99.90
56298;DHT22;42208;6.376;-10.782;2023-06-24T04:51:31;23.70;99.90
56298;DHT22;42208;6.376;-10.782;2023-06-24T04:53:59;23.70;99.90
56298;DHT22;42208;6.376;-10.782;2023-06-24T04:56:28;23.70;99.90
56298;DHT22;42208;6.376;-10.782;2023-06-24T04:58:56;23.70;99.90
56298;DHT22;42208;6.376;-10.782;2023-06-24T05:01:24;23.70;99.90
56298;DHT22;42208;6.376;-10.782;2023-06-24T05:03:53;23.70;99.90
56298;DHT22;42208;6.376;-10.782;2023-06-24T05:06:21;23.70;99.90
56298;DHT22;42208;6.376;-10.782;2023-06-24T05:08:50;23.70;99.90
56298;DHT22;42208;6.376;-10.782;2023-06-24T05:11:21;23.70;99.90
56298;DHT22;42208;6.376;-10.782;2023-06-24T05:13:50;23.70;99.90
56298;DHT22;42208;6.376;-10.782;2023-06-24T05:16:18;23.70;99.90
56298;DHT22;42208;6.376;-10.782;2023-06-24T05:18:47;23.70;99.90
56298;DHT22;42208;6.376;-10.782;2023-06-24T05:21:15;23.70;99.90
56298;DHT22;42208;6.376;-10.782;2023-06-24T05:23:43;23.70;99.90
56298;DHT22;42208;6.376;-10.782;2023-06-24T05:26:12;23.70;99.90
56298;DHT22;42208;6.376;-10.782;2023-06-24T05:28:40;23.70;99.90
56298;DHT22;42208;6.376;-10.782;2023-06-24T05:31:08;23.70;99.90
56298;DHT22;42208;6.376;-10.782;2023-06-24T05:33:37;23.70;99.90
56298;DHT22;42208;6.376;-10.782;2023-06-24T05:36:05;23.70;99.90
56298;DHT22;42208;6.376;-10.782;2023-06-24T05:38:34;23.70;99.90
56298;DHT22;42208;6.376;-10.782;2023-06-24T05:41:02;23.70;99.90
56298;DHT22;42208;6.376;-10.782;2023-06-24T05:43:31;23.70;99.90
56298;DHT22;42208;6.376;-10.782;2023-06-24T05:45:59;23.70;99.90
56298;DHT22;42208;6.376;-10.782;2023-06-24T05:48:28;23.70;99.90
56298;DHT22;42208;6.376;-10.782;2023-06-24T05:50:56;23.70;99.90
56298;DHT22;42208;6.376;-10.782;2023-06-24T05:53:24;23.70;99.90
56298;DHT22;42208;6.376;-10.782;2023-06-24T05:55:53;23.70;99.90
56298;DHT22;42208;6.376;-10.782;2023-06-24T05:58:21;23.70;99.90
56298;DHT22;42208;6.376;-10.782;2023-06-24T06:00:50;23.70;99.90
56298;DHT22;42208;6.376;-10.782;2023-06-24T06:03:18;23.70;99.90
56298;DHT22;42208;6.376;-10.782;2023-06-24T06:05:47;23.70;99.90
56298;DHT22;42208;6.376;-10.782;2023-06-24T06:08:15;23.70;99.90
56298;DHT22;42208;6.376;-10.782;2023-06-24T06:10:44;23.70;99.90
56298;DHT22;42208;6.376;-10.782;2023-06-24T06:13:12;23.70;99.90
56298;DHT22;42208;6.376;-10.782;2023-06-24T06:15:41;23.70;99.90
56298;DHT22;42208;6.376;-10.782;2023-06-24T06:18:09;23.70;99.90
56298;DHT22;42208;6.376;-10.782;2023-06-24T06:20:37;23.60;99.90
56298;DHT22;42208;6.376;-10.782;2023-06-24T06:23:07;23.60;99.90
56298;DHT22;42208;6.376;-10.782;2023-06-24T06:25:36;23.60;99.90
56298;DHT22;42208;6.376;-10.782;2023-06-24T06:28:04;23.60;99.90
56298;DHT22;42208;6.376;-10.782;2023-06-24T06:30:33;23.60;99.90
56298;DHT22;42208;6.376;-10.782;2023-06-24T06:33:01;23.60;99.90
56298;DHT22;42208;6.376;-10.782;2023-06-24T06:35:30;23.60;99.90
56298;DHT22;42208;6.376;-10.782;2023-06-24T06:37:58;23.60;99.90
56298;DHT22;42208;6.376;-10.782;2023-06-24T06:40:27;23.60;99.90
56298;DHT22;42208;6.376;-10.782;2023-06-24T06:42:55;23.60;99.90
56298;DHT22;42208;6.376;-10.782;2023-06-24T06:45:26;23.60;99.90
56298;DHT22;42208;6.376;-10.782;2023-06-24T06:47:57;23.60;99.90
56298;DHT22;42208;6.376;-10.782;2023-06-24T06:50:26;23.70;99.90
56298;DHT22;42208;6.376;-10.782;2023-06-24T06:52:54;23.70;99.90
56298;DHT22;42208;6.376;-10.782;2023-06-24T06:55:22;23.70;99.90
56298;DHT22;42208;6.376;-10.782;2023-06-24T06:57:51;23.70;99.90
56298;DHT22;42208;6.376;-10.782;2023-06-24T07:00:19;23.70;99.90
56298;DHT22;42208;6.376;-10.782;2023-06-24T07:02:48;23.80;99.90
56298;DHT22;42208;6.376;-10.782;2023-06-24T07:05:16;23.80;99.90
56298;DHT22;42208;6.376;-10.782;2023-06-24T07:07:46;23.80;99.90
56298;DHT22;42208;6.376;-10.782;2023-06-24T07:10:14;23.80;99.90
56298;DHT22;42208;6.376;-10.782;2023-06-24T07:12:43;23.90;99.90
56298;DHT22;42208;6.376;-10.782;2023-06-24T07:15:12;23.90;99.90
56298;DHT22;42208;6.376;-10.782;2023-06-24T07:17:40;23.90;99.90
56298;DHT22;42208;6.376;-10.782;2023-06-24T07:20:09;24.00;99.90
56298;DHT22;42208;6.376;-10.782;2023-06-24T07:22:38;24.00;99.90
56298;DHT22;42208;6.376;-10.782;2023-06-24T07:25:07;24.00;99.90
56298;DHT22;42208;6.376;-10.782;2023-06-24T07:27:35;24.00;99.90
56298;DHT22;42208;6.376;-10.782;2023-06-24T07:30:05;24.00;99.90
56298;DHT22;42208;6.376;-10.782;2023-06-24T07:32:34;24.00;99.90
56298;DHT22;42208;6.376;-10.782;2023-06-24T07:35:02;24.10;99.90
56298;DHT22;42208;6.376;-10.782;2023-06-24T07:37:31;24.10;99.90
56298;DHT22;42208;6.376;-10.782;2023-06-24T07:39:59;24.10;99.90
56298;DHT22;42208;6.376;-10.782;2023-06-24T07:42:28;24.10;99.90
56298;DHT22;42208;6.376;-10.782;2023-06-24T07:44:58;24.10;99.90
56298;DHT22;42208;6.376;-10.782;2023-06-24T07:47:26;24.20;99.90
56298;DHT22;42208;6.376;-10.782;2023-06-24T07:49:55;24.20;99.90
56298;DHT22;42208;6.376;-10.782;2023-06-24T07:52:24;24.30;99.90
56298;DHT22;42208;6.376;-10.782;2023-06-24T07:54:52;24.30;99.90
56298;DHT22;42208;6.376;-10.782;2023-06-24T07:57:21;24.40;99.90
56298;DHT22;42208;6.376;-10.782;2023-06-24T07:59:49;24.40;99.90
56298;DHT22;42208;6.376;-10.782;2023-06-24T08:02:18;24.40;99.90
56298;DHT22;42208;6.376;-10.782;2023-06-24T08:04:46;24.50;99.90
56298;DHT22;42208;6.376;-10.782;2023-06-24T08:07:15;24.50;99.90
56298;DHT22;42208;6.376;-10.782;2023-06-24T08:09:44;24.50;99.90
56298;DHT22;42208;6.376;-10.782;2023-06-24T08:12:13;24.50;99.90
56298;DHT22;42208;6.376;-10.782;2023-06-24T08:14:42;24.60;99.90
56298;DHT22;42208;6.376;-10.782;2023-06-24T08:17:10;24.60;99.90
56298;DHT22;42208;6.376;-10.782;2023-06-24T08:19:40;24.60;99.90
56298;DHT22;42208;6.376;-10.782;2023-06-24T08:22:09;24.60;99.90
56298;DHT22;42208;6.376;-10.782;2023-06-24T08:24:39;24.60;99.90
56298;DHT22;42208;6.376;-10.782;2023-06-24T08:27:08;24.60;99.90
56298;DHT22;42208;6.376;-10.782;2023-06-24T08:29:36;24.60;99.90
56298;DHT22;42208;6.376;-10.782;2023-06-24T08:32:05;24.60;99.90
56298;DHT22;42208;6.376;-10.782;2023-06-24T08:34:34;24.60;99.90
56298;DHT22;42208;6.376;-10.782;2023-06-24T08:37:03;24.60;99.90
56298;DHT22;42208;6.376;-10.782;2023-06-24T08:39:35;24.60;99.90
56298;DHT22;42208;6.376;-10.782;2023-06-24T08:42:03;24.50;99.90
56298;DHT22;42208;6.376;-10.782;2023-06-24T08:44:32;24.50;99.90
56298;DHT22;42208;6.376;-10.782;2023-06-24T08:47:01;24.60;99.90
56298;DHT22;42208;6.376;-10.782;2023-06-24T08:49:31;24.60;99.90
56298;DHT22;42208;6.376;-10.782;2023-06-24T08:52:08;24.70;99.90
56298;DHT22;42208;6.376;-10.782;2023-06-24T08:54:40;24.70;99.90
56298;DHT22;42208;6.376;-10.782;2023-06-24T08:57:09;24.70;99.90
56298;DHT22;42208;6.376;-10.782;2023-06-24T08:59:41;24.80;99.90
56298;DHT22;42208;6.376;-10.782;2023-06-24T09:02:10;24.90;99.90
56298;DHT22;42208;6.376;-10.782;2023-06-24T09:04:39;24.90;99.90
56298;DHT22;42208;6.376;-10.782;2023-06-24T09:07:08;25.00;99.90
56298;DHT22;42208;6.376;-10.782;2023-06-24T09:09:44;25.10;99.90
56298;DHT22;42208;6.376;-10.782;2023-06-24T09:12:23;25.20;99.90
56298;DHT22;42208;6.376;-10.782;2023-06-24T09:14:53;25.20;99.90
56298;DHT22;42208;6.376;-10.782;2023-06-24T09:17:21;25.30;99.90
56298;DHT22;42208;6.376;-10.782;2023-06-24T09:19:51;25.30;99.90
56298;DHT22;42208;6.376;-10.782;2023-06-24T09:22:19;25.30;99.90
56298;DHT22;42208;6.376;-10.782;2023-06-24T09:24:48;25.20;99.90
56298;DHT22;42208;6.376;-10.782;2023-06-24T09:27:18;25.10;99.90
56298;DHT22;42208;6.376;-10.782;2023-06-24T09:29:46;25.10;99.90
56298;DHT22;42208;6.376;-10.782;2023-06-24T09:32:15;25.10;99.90
56298;DHT22;42208;6.376;-10.782;2023-06-24T09:34:46;25.10;99.90
56298;DHT22;42208;6.376;-10.782;2023-06-24T09:37:21;25.10;99.90
56298;DHT22;42208;6.376;-10.782;2023-06-24T09:39:50;25.20;99.90
56298;DHT22;42208;6.376;-10.782;2023-06-24T09:42:21;25.20;99.90
56298;DHT22;42208;6.376;-10.782;2023-06-24T09:44:55;25.30;99.90
56298;DHT22;42208;6.376;-10.782;2023-06-24T09:47:25;25.30;99.90
56298;DHT22;42208;6.376;-10.782;2023-06-24T09:49:54;25.30;99.90
56298;DHT22;42208;6.376;-10.782;2023-06-24T09:52:23;25.30;99.90
56298;DHT22;42208;6.376;-10.782;2023-06-24T09:54:54;25.30;99.90
56298;DHT22;42208;6.376;-10.782;2023-06-24T09:57:29;25.40;99.90
56298;DHT22;42208;6.376;-10.782;2023-06-24T10:00:00;25.40;99.90
56298;DHT22;42208;6.376;-10.782;2023-06-24T10:02:31;25.40;99.90
56298;DHT22;42208;6.376;-10.782;2023-06-24T10:05:01;25.40;99.90
56298;DHT22;42208;6.376;-10.782;2023-06-24T10:07:30;25.50;99.90
56298;DHT22;42208;6.376;-10.782;2023-06-24T10:10:02;25.50;99.90
56298;DHT22;42208;6.376;-10.782;2023-06-24T10:12:33;25.60;99.90
56298;DHT22;42208;6.376;-10.782;2023-06-24T10:15:03;25.70;99.90
56298;DHT22;42208;6.376;-10.782;2023-06-24T10:17:33;25.70;99.90
56298;DHT22;42208;6.376;-10.782;2023-06-24T10:20:05;25.60;99.90
56298;DHT22;42208;6.376;-10.782;2023-06-24T10:22:38;25.60;99.90
56298;DHT22;42208;6.376;-10.782;2023-06-24T10:25:11;25.60;99.90
56298;DHT22;42208;6.376;-10.782;2023-06-24T10:27:40;25.70;99.90
56298;DHT22;42208;6.376;-10.782;2023-06-24T10:30:17;25.80;99.90
56298;DHT22;42208;6.376;-10.782;2023-06-24T10:32:51;25.90;99.90
56298;DHT22;42208;6.376;-10.782;2023-06-24T10:35:28;25.90;99.90
56298;DHT22;42208;6.376;-10.782;2023-06-24T10:38:01;26.00;99.90
56298;DHT22;42208;6.376;-10.782;2023-06-24T10:45:54;26.20;99.90
56298;DHT22;42208;6.376;-10.782;2023-06-24T10:48:23;26.20;99.90
56298;DHT22;42208;6.376;-10.782;2023-06-24T10:50:52;26.30;99.90
56298;DHT22;42208;6.376;-10.782;2023-06-24T10:53:22;26.30;99.90
56298;DHT22;42208;6.376;-10.782;2023-06-24T10:55:57;26.40;99.90
56298;DHT22;42208;6.376;-10.782;2023-06-24T10:58:26;26.40;99.90
56298;DHT22;42208;6.376;-10.782;2023-06-24T11:01:07;26.40;99.90
56298;DHT22;42208;6.376;-10.782;2023-06-24T11:03:36;26.40;99.90
56298;DHT22;42208;6.376;-10.782;2023-06-24T11:06:10;26.30;99.90
56298;DHT22;42208;6.376;-10.782;2023-06-24T11:08:45;26.40;99.90
56298;DHT22;42208;6.376;-10.782;2023-06-24T11:11:20;26.40;99.90
56298;DHT22;42208;6.376;-10.782;2023-06-24T11:13:52;26.40;99.90
56298;DHT22;42208;6.376;-10.782;2023-06-24T11:16:21;26.40;99.90
56298;DHT22;42208;6.376;-10.782;2023-06-24T11:18:50;26.40;99.90
56298;DHT22;42208;6.376;-10.782;2023-06-24T11:21:18;26.30;99.90
56298;DHT22;42208;6.376;-10.782;2023-06-24T11:23:47;26.40;99.90
56298;DHT22;42208;6.376;-10.782;2023-06-24T11:26:15;26.40;99.90
56298;DHT22;42208;6.376;-10.782;2023-06-24T11:28:44;26.40;99.90
56298;DHT22;42208;6.376;-10.782;2023-06-24T11:31:12;26.50;99.90
56298;DHT22;42208;6.376;-10.782;2023-06-24T11:33:41;26.50;99.90
56298;DHT22;42208;6.376;-10.782;2023-06-24T11:36:10;26.60;99.90
56298;DHT22;42208;6.376;-10.782;2023-06-24T11:38:40;26.70;99.90
56298;DHT22;42208;6.376;-10.782;2023-06-24T11:41:09;26.80;99.90
56298;DHT22;42208;6.376;-10.782;2023-06-24T11:43:37;26.70;99.90
56298;DHT22;42208;6.376;-10.782;2023-06-24T11:46:06;26.80;99.90
56298;DHT22;42208;6.376;-10.782;2023-06-24T11:48:39;26.80;99.90
56298;DHT22;42208;6.376;-10.782;2023-06-24T11:51:14;26.90;99.90
56298;DHT22;42208;6.376;-10.782;2023-06-24T11:53:44;26.90;99.90
56298;DHT22;42208;6.376;-10.782;2023-06-24T11:56:14;26.90;99.90
56298;DHT22;42208;6.376;-10.782;2023-06-24T11:58:43;26.90;99.90
56298;DHT22;42208;6.376;-10.782;2023-06-24T12:01:13;26.90;99.90
56298;DHT22;42208;6.376;-10.782;2023-06-24T12:03:42;26.90;99.90
56298;DHT22;42208;6.376;-10.782;2023-06-24T12:06:11;26.90;99.90
56298;DHT22;42208;6.376;-10.782;2023-06-24T12:08:39;26.80;99.90
56298;DHT22;42208;6.376;-10.782;2023-06-24T12:11:19;26.80;99.90
56298;DHT22;42208;6.376;-10.782;2023-06-24T12:13:48;26.90;99.90
56298;DHT22;42208;6.376;-10.782;2023-06-24T12:16:16;27.00;99.90
56298;DHT22;42208;6.376;-10.782;2023-06-24T12:18:45;27.10;99.90
56298;DHT22;42208;6.376;-10.782;2023-06-24T12:21:13;27.10;99.90
56298;DHT22;42208;6.376;-10.782;2023-06-24T12:23:42;27.20;99.90
56298;DHT22;42208;6.376;-10.782;2023-06-24T12:26:12;27.20;99.90
56298;DHT22;42208;6.376;-10.782;2023-06-24T12:28:41;27.20;99.90
56298;DHT22;42208;6.376;-10.782;2023-06-24T12:31:11;27.20;99.90
56298;DHT22;42208;6.376;-10.782;2023-06-24T12:33:40;27.40;99.90
56298;DHT22;42208;6.376;-10.782;2023-06-24T12:36:11;27.50;99.90
56298;DHT22;42208;6.376;-10.782;2023-06-24T12:38:40;27.50;99.90
56298;DHT22;42208;6.376;-10.782;2023-06-24T12:41:09;27.50;99.90
56298;DHT22;42208;6.376;-10.782;2023-06-24T12:43:37;27.60;99.90
56298;DHT22;42208;6.376;-10.782;2023-06-24T12:46:06;27.70;99.90
56298;DHT22;42208;6.376;-10.782;2023-06-24T12:48:35;27.80;99.90
56298;DHT22;42208;6.376;-10.782;2023-06-24T12:51:03;27.80;99.90
56298;DHT22;42208;6.376;-10.782;2023-06-24T12:53:32;27.80;99.90
56298;DHT22;42208;6.376;-10.782;2023-06-24T12:56:00;27.80;99.90
56298;DHT22;42208;6.376;-10.782;2023-06-24T12:58:29;27.80;99.90
56298;DHT22;42208;6.376;-10.782;2023-06-24T13:00:58;27.80;99.90
56298;DHT22;42208;6.376;-10.782;2023-06-24T13:03:26;27.80;99.90
56298;DHT22;42208;6.376;-10.782;2023-06-24T13:06:04;27.70;99.90
56298;DHT22;42208;6.376;-10.782;2023-06-24T13:08:36;27.70;99.90
56298;DHT22;42208;6.376;-10.782;2023-06-24T13:11:04;27.70;99.90
56298;DHT22;42208;6.376;-10.782;2023-06-24T13:13:33;27.70;99.90
56298;DHT22;42208;6.376;-10.782;2023-06-24T13:16:02;27.70;99.90
56298;DHT22;42208;6.376;-10.782;2023-06-24T13:18:30;27.70;99.90
56298;DHT22;42208;6.376;-10.782;2023-06-24T13:21:04;27.80;99.90
56298;DHT22;42208;6.376;-10.782;2023-06-24T13:23:43;27.70;99.90
56298;DHT22;42208;6.376;-10.782;2023-06-24T13:26:11;27.70;99.90
56298;DHT22;42208;6.376;-10.782;2023-06-24T13:28:40;27.70;99.90
56298;DHT22;42208;6.376;-10.782;2023-06-24T13:31:09;27.80;99.90
56298;DHT22;42208;6.376;-10.782;2023-06-24T13:33:37;27.80;99.90
56298;DHT22;42208;6.376;-10.782;2023-06-24T13:36:08;27.80;99.90
56298;DHT22;42208;6.376;-10.782;2023-06-24T13:38:37;27.80;99.90
56298;DHT22;42208;6.376;-10.782;2023-06-24T13:41:06;27.80;99.90
56298;DHT22;42208;6.376;-10.782;2023-06-24T13:43:35;27.90;99.90
56298;DHT22;42208;6.376;-10.782;2023-06-24T13:46:04;27.80;99.90
56298;DHT22;42208;6.376;-10.782;2023-06-24T13:48:32;27.90;99.90
56298;DHT22;42208;6.376;-10.782;2023-06-24T13:51:01;27.90;99.90
56298;DHT22;42208;6.376;-10.782;2023-06-24T13:53:29;27.90;99.90
56298;DHT22;42208;6.376;-10.782;2023-06-24T13:55:57;27.90;99.90
56298;DHT22;42208;6.376;-10.782;2023-06-24T13:58:26;27.80;99.90
56298;DHT22;42208;6.376;-10.782;2023-06-24T14:00:54;27.80;99.90
56298;DHT22;42208;6.376;-10.782;2023-06-24T14:03:24;27.80;99.90
56298;DHT22;42208;6.376;-10.782;2023-06-24T14:05:52;27.70;99.90
56298;DHT22;42208;6.376;-10.782;2023-06-24T14:08:21;27.70;99.90
56298;DHT22;42208;6.376;-10.782;2023-06-24T14:10:50;27.60;99.90
56298;DHT22;42208;6.376;-10.782;2023-06-24T14:13:18;27.60;99.90
56298;DHT22;42208;6.376;-10.782;2023-06-24T14:15:47;27.60;99.90
56298;DHT22;42208;6.376;-10.782;2023-06-24T14:18:16;27.60;99.90
56298;DHT22;42208;6.376;-10.782;2023-06-24T14:20:45;27.60;99.90
56298;DHT22;42208;6.376;-10.782;2023-06-24T14:23:13;27.70;99.90
56298;DHT22;42208;6.376;-10.782;2023-06-24T14:25:42;27.60;99.90
56298;DHT22;42208;6.376;-10.782;2023-06-24T14:28:10;27.60;99.90
56298;DHT22;42208;6.376;-10.782;2023-06-24T14:30:39;27.50;99.90
56298;DHT22;42208;6.376;-10.782;2023-06-24T14:33:08;27.50;99.90
56298;DHT22;42208;6.376;-10.782;2023-06-24T14:35:37;27.30;99.90
56298;DHT22;42208;6.376;-10.782;2023-06-24T14:38:06;27.10;99.90
56298;DHT22;42208;6.376;-10.782;2023-06-24T14:40:36;27.00;99.90
56298;DHT22;42208;6.376;-10.782;2023-06-24T14:43:04;26.90;99.90
56298;DHT22;42208;6.376;-10.782;2023-06-24T14:45:33;26.80;99.90
56298;DHT22;42208;6.376;-10.782;2023-06-24T14:48:02;26.70;99.90
56298;DHT22;42208;6.376;-10.782;2023-06-24T14:50:30;26.70;99.90
56298;DHT22;42208;6.376;-10.782;2023-06-24T14:52:59;26.70;99.90
56298;DHT22;42208;6.376;-10.782;2023-06-24T14:55:28;26.70;99.90
56298;DHT22;42208;6.376;-10.782;2023-06-24T14:57:57;26.70;99.90
56298;DHT22;42208;6.376;-10.782;2023-06-24T15:00:26;26.60;99.90
56298;DHT22;42208;6.376;-10.782;2023-06-24T15:02:54;26.60;99.90
56298;DHT22;42208;6.376;-10.782;2023-06-24T15:05:24;26.60;99.90
56298;DHT22;42208;6.376;-10.782;2023-06-24T15:07:53;26.50;99.90
56298;DHT22;42208;6.376;-10.782;2023-06-24T15:10:21;26.50;99.90
56298;DHT22;42208;6.376;-10.782;2023-06-24T15:12:50;26.50;99.90
56298;DHT22;42208;6.376;-10.782;2023-06-24T15:15:21;26.50;99.90
56298;DHT22;42208;6.376;-10.782;2023-06-24T15:17:49;26.50;99.90
56298;DHT22;42208;6.376;-10.782;2023-06-24T15:20:18;26.50;99.90
56298;DHT22;42208;6.376;-10.782;2023-06-24T15:22:46;26.40;99.90
56298;DHT22;42208;6.376;-10.782;2023-06-24T15:25:16;26.40;99.90
56298;DHT22;42208;6.376;-10.782;2023-06-24T15:27:49;26.30;99.90
56298;DHT22;42208;6.376;-10.782;2023-06-24T15:30:17;26.30;99.90
56298;DHT22;42208;6.376;-10.782;2023-06-24T15:32:46;26.30;99.90
56298;DHT22;42208;6.376;-10.782;2023-06-24T15:35:23;26.20;99.90
56298;DHT22;42208;6.376;-10.782;2023-06-24T15:37:52;26.20;99.90
56298;DHT22;42208;6.376;-10.782;2023-06-24T15:40:21;26.20;99.90
56298;DHT22;42208;6.376;-10.782;2023-06-24T15:42:52;26.30;99.90
56298;DHT22;42208;6.376;-10.782;2023-06-24T15:45:21;26.30;99.90